sensor_id;sensor_type;location;lat;lon;timestamp;pressure;altitude;pressure_sealevel;temperature;humidity
63665;BME280;49820;33.966;73.390;2024-03-08T03:00:33;78980.47;;;9.84;71.00
63665;BME280;49820;33.966;73.390;2024-03-08T03:06:11;78984.41;;;10.24;66.79
63665;BME280;49820;33.966;73.390;2024-03-08T03:08:41;78988.19;;;10.38;66.09
63665;BME280;49820;33.966;73.390;2024-03-08T03:11:13;78998.56;;;10.54;66.39
63665;BME280;49820;33.966;73.390;2024-03-08T03:13:43;78991.94;;;10.49;65.82
63665;BME280;49820;33.966;73.390;2024-03-08T03:16:20;78993.91;;;10.85;65.18
63665;BME280;49820;33.966;73.390;2024-03-08T03:18:49;78995.66;;;10.97;65.00
63665;BME280;49820;33.966;73.390;2024-03-08T03:21:19;78992.00;;;10.80;63.85
63665;BME280;49820;33.966;73.390;2024-03-08T03:23:50;78999.41;;;10.44;63.91
63665;BME280;49820;33.966;73.390;2024-03-08T03:26:20;78987.38;;;10.45;65.18
63665;BME280;49820;33.966;73.390;2024-03-08T03:28:51;78994.75;;;10.76;64.29
63665;BME280;49820;33.966;73.390;2024-03-08T03:31:20;79011.19;;;10.88;63.97
63665;BME280;49820;33.966;73.390;2024-03-08T03:33:53;79016.97;;;10.33;64.46
63665;BME280;49820;33.966;73.390;2024-03-08T03:36:23;79004.28;;;10.66;64.13
63665;BME280;49820;33.966;73.390;2024-03-08T03:38:54;79008.59;;;10.51;64.03
63665;BME280;49820;33.966;73.390;2024-03-08T03:41:35;79001.91;;;10.52;61.56
63665;BME280;49820;33.966;73.390;2024-03-08T03:44:05;79025.09;;;10.62;64.54
63665;BME280;49820;33.966;73.390;2024-03-08T03:46:42;79025.34;;;10.83;64.32
63665;BME280;49820;33.966;73.390;2024-03-08T03:49:14;79029.72;;;11.29;62.91
63665;BME280;49820;33.966;73.390;2024-03-08T03:51:44;79027.25;;;11.19;62.86
63665;BME280;49820;33.966;73.390;2024-03-08T03:54:14;79037.44;;;10.80;62.41
63665;BME280;49820;33.966;73.390;2024-03-08T03:56:44;79043.59;;;11.05;62.60
63665;BME280;49820;33.966;73.390;2024-03-08T03:59:15;79047.09;;;10.97;58.42
63665;BME280;49820;33.966;73.390;2024-03-08T04:01:46;79036.84;;;11.70;60.53
63665;BME280;49820;33.966;73.390;2024-03-08T04:04:16;79052.91;;;12.28;57.83
63665;BME280;49820;33.966;73.390;2024-03-08T04:06:46;79041.78;;;12.44;56.19
63665;BME280;49820;33.966;73.390;2024-03-08T04:09:16;79039.84;;;12.67;56.90
63665;BME280;49820;33.966;73.390;2024-03-08T04:11:49;79047.25;;;12.67;56.24
63665;BME280;49820;33.966;73.390;2024-03-08T04:14:23;79039.16;;;12.69;58.21
63665;BME280;49820;33.966;73.390;2024-03-08T04:16:53;79049.00;;;12.49;57.23
63665;BME280;49820;33.966;73.390;2024-03-08T04:19:22;79051.00;;;12.24;57.50
63665;BME280;49820;33.966;73.390;2024-03-08T04:21:53;79041.13;;;12.16;60.55
63665;BME280;49820;33.966;73.390;2024-03-08T04:24:23;79035.13;;;11.87;59.79
63665;BME280;49820;33.966;73.390;2024-03-08T04:26:53;79046.47;;;11.90;58.55
63665;BME280;49820;33.966;73.390;2024-03-08T04:29:23;79062.19;;;11.73;58.09
63665;BME280;49820;33.966;73.390;2024-03-08T04:31:53;79055.81;;;11.91;58.01
63665;BME280;49820;33.966;73.390;2024-03-08T04:34:23;79056.94;;;12.00;58.51
63665;BME280;49820;33.966;73.390;2024-03-08T04:36:53;79064.72;;;11.81;58.60
63665;BME280;49820;33.966;73.390;2024-03-08T04:39:23;79061.06;;;11.64;59.40
63665;BME280;49820;33.966;73.390;2024-03-08T04:41:54;79058.19;;;11.43;59.65
63665;BME280;49820;33.966;73.390;2024-03-08T04:44:25;79061.03;;;11.66;59.87
63665;BME280;49820;33.966;73.390;2024-03-08T04:46:55;79061.41;;;11.47;60.53
63665;BME280;49820;33.966;73.390;2024-03-08T04:49:25;79064.63;;;11.54;59.42
63665;BME280;49820;33.966;73.390;2024-03-08T04:51:55;79054.56;;;11.24;60.97
63665;BME280;49820;33.966;73.390;2024-03-08T04:54:25;79063.22;;;11.26;60.82
63665;BME280;49820;33.966;73.390;2024-03-08T04:56:55;79059.06;;;11.33;60.52
63665;BME280;49820;33.966;73.390;2024-03-08T04:59:25;79072.97;;;11.40;60.01
63665;BME280;49820;33.966;73.390;2024-03-08T05:01:56;79063.06;;;10.66;59.66
63665;BME280;49820;33.966;73.390;2024-03-08T05:04:26;79071.78;;;10.65;61.86
63665;BME280;49820;33.966;73.390;2024-03-08T05:06:55;79068.38;;;10.68;62.86
63665;BME280;49820;33.966;73.390;2024-03-08T05:09:26;79072.78;;;10.82;63.13
63665;BME280;49820;33.966;73.390;2024-03-08T05:11:58;79074.47;;;10.98;62.60
63665;BME280;49820;33.966;73.390;2024-03-08T05:14:28;79072.34;;;11.04;62.08
63665;BME280;49820;33.966;73.390;2024-03-08T05:16:58;79073.63;;;11.07;60.64
63665;BME280;49820;33.966;73.390;2024-03-08T05:19:30;79071.25;;;11.26;61.45
63665;BME280;49820;33.966;73.390;2024-03-08T05:22:02;79064.94;;;11.40;61.89
63665;BME280;49820;33.966;73.390;2024-03-08T05:24:32;79068.34;;;11.03;59.67
63665;BME280;49820;33.966;73.390;2024-03-08T05:27:02;79072.25;;;11.41;62.97
63665;BME280;49820;33.966;73.390;2024-03-08T05:29:32;79066.63;;;11.23;59.42
63665;BME280;49820;33.966;73.390;2024-03-08T05:32:02;79074.53;;;11.60;61.70
63665;BME280;49820;33.966;73.390;2024-03-08T05:34:33;79074.09;;;11.49;59.61
63665;BME280;49820;33.966;73.390;2024-03-08T05:37:03;79084.69;;;11.22;57.20
63665;BME280;49820;33.966;73.390;2024-03-08T05:39:33;79064.94;;;11.40;61.35
63665;BME280;49820;33.966;73.390;2024-03-08T05:42:03;79080.06;;;11.52;59.19
63665;BME280;49820;33.966;73.390;2024-03-08T05:44:33;79075.53;;;11.44;58.98
63665;BME280;49820;33.966;73.390;2024-03-08T05:47:03;79074.41;;;11.66;59.92
63665;BME280;49820;33.966;73.390;2024-03-08T05:49:33;79086.03;;;11.54;57.17
63665;BME280;49820;33.966;73.390;2024-03-08T05:52:04;79090.47;;;12.52;59.48
63665;BME280;49820;33.966;73.390;2024-03-08T05:54:33;79090.50;;;12.79;56.20
63665;BME280;49820;33.966;73.390;2024-03-08T05:57:03;79077.28;;;12.71;53.82
63665;BME280;49820;33.966;73.390;2024-03-08T05:59:33;79075.72;;;13.32;54.12
63665;BME280;49820;33.966;73.390;2024-03-08T06:02:03;79081.78;;;13.55;53.02
63665;BME280;49820;33.966;73.390;2024-03-08T06:04:34;79090.22;;;13.89;52.97
63665;BME280;49820;33.966;73.390;2024-03-08T06:07:04;79103.53;;;13.93;52.53
63665;BME280;49820;33.966;73.390;2024-03-08T06:09:34;79088.09;;;14.16;52.11
63665;BME280;49820;33.966;73.390;2024-03-08T06:12:04;79084.63;;;14.42;48.34
63665;BME280;49820;33.966;73.390;2024-03-08T06:14:35;79089.78;;;14.92;50.01
63665;BME280;49820;33.966;73.390;2024-03-08T06:17:05;79083.59;;;15.16;47.68
63665;BME280;49820;33.966;73.390;2024-03-08T06:19:36;79082.50;;;15.09;48.19
63665;BME280;49820;33.966;73.390;2024-03-08T06:22:06;79082.16;;;15.19;48.61
63665;BME280;49820;33.966;73.390;2024-03-08T06:24:36;79076.88;;;15.57;46.93
63665;BME280;49820;33.966;73.390;2024-03-08T06:27:07;79084.84;;;15.98;44.91
63665;BME280;49820;33.966;73.390;2024-03-08T06:29:38;79087.25;;;16.25;44.00
63665;BME280;49820;33.966;73.390;2024-03-08T06:32:09;79073.66;;;17.84;47.16
63665;BME280;49820;33.966;73.390;2024-03-08T06:34:38;79071.94;;;16.93;43.34
63665;BME280;49820;33.966;73.390;2024-03-08T06:37:08;79074.59;;;16.76;43.41
63665;BME280;49820;33.966;73.390;2024-03-08T06:39:38;79081.84;;;16.98;43.79
63665;BME280;49820;33.966;73.390;2024-03-08T06:42:08;79078.66;;;16.02;46.07
63665;BME280;49820;33.966;73.390;2024-03-08T06:44:39;79075.59;;;18.34;45.25
63665;BME280;49820;33.966;73.390;2024-03-08T06:47:18;79080.91;;;16.33;43.77
63665;BME280;49820;33.966;73.390;2024-03-08T06:49:51;79080.44;;;14.25;47.37
63665;BME280;49820;33.966;73.390;2024-03-08T06:52:21;79065.63;;;14.69;48.31
63665;BME280;49820;33.966;73.390;2024-03-08T06:54:51;79077.88;;;15.26;47.82
63665;BME280;49820;33.966;73.390;2024-03-08T06:57:22;79076.22;;;12.87;48.62
63665;BME280;49820;33.966;73.390;2024-03-08T06:59:51;79076.81;;;12.89;49.68
63665;BME280;49820;33.966;73.390;2024-03-08T07:02:22;79065.63;;;16.09;45.31
63665;BME280;49820;33.966;73.390;2024-03-08T07:04:53;79072.59;;;17.43;43.77
63665;BME280;49820;33.966;73.390;2024-03-08T07:07:23;79046.75;;;16.27;44.09
63665;BME280;49820;33.966;73.390;2024-03-08T07:09:53;79075.72;;;17.83;45.19
63665;BME280;49820;33.966;73.390;2024-03-08T07:12:25;79066.41;;;15.68;43.94
63665;BME280;49820;33.966;73.390;2024-03-08T07:14:55;79077.91;;;15.06;45.62
63665;BME280;49820;33.966;73.390;2024-03-08T07:17:25;79066.56;;;16.20;44.15
63665;BME280;49820;33.966;73.390;2024-03-08T07:19:55;79077.84;;;14.66;43.86
63665;BME280;49820;33.966;73.390;2024-03-08T07:22:26;79084.84;;;14.11;45.41
63665;BME280;49820;33.966;73.390;2024-03-08T07:24:56;79067.94;;;14.81;47.34
63665;BME280;49820;33.966;73.390;2024-03-08T07:27:50;79046.03;;;16.10;46.27
63665;BME280;49820;33.966;73.390;2024-03-08T07:30:24;79062.63;;;14.13;47.51
63665;BME280;49820;33.966;73.390;2024-03-08T07:33:13;79046.38;;;16.37;47.25
63665;BME280;49820;33.966;73.390;2024-03-08T07:35:43;79043.53;;;16.77;43.58
63665;BME280;49820;33.966;73.390;2024-03-08T07:38:14;79043.09;;;18.50;42.92
63665;BME280;49820;33.966;73.390;2024-03-08T07:40:44;79047.94;;;17.85;42.16
63665;BME280;49820;33.966;73.390;2024-03-08T07:43:14;79056.25;;;15.10;42.42
63665;BME280;49820;33.966;73.390;2024-03-08T07:45:44;79055.47;;;14.51;45.13
63665;BME280;49820;33.966;73.390;2024-03-08T07:48:14;79064.00;;;13.44;47.48
63665;BME280;49820;33.966;73.390;2024-03-08T07:50:46;79042.94;;;12.78;48.05
63665;BME280;49820;33.966;73.390;2024-03-08T07:53:16;79051.28;;;12.66;48.06
63665;BME280;49820;33.966;73.390;2024-03-08T07:55:46;79046.38;;;11.63;51.06
63665;BME280;49820;33.966;73.390;2024-03-08T07:58:16;79048.50;;;12.43;48.38
63665;BME280;49820;33.966;73.390;2024-03-08T08:00:47;79025.72;;;11.59;50.27
63665;BME280;49820;33.966;73.390;2024-03-08T08:03:18;79052.22;;;11.40;52.81
63665;BME280;49820;33.966;73.390;2024-03-08T08:05:50;79026.91;;;11.35;53.13
63665;BME280;49820;33.966;73.390;2024-03-08T08:08:20;79038.44;;;11.28;53.56
63665;BME280;49820;33.966;73.390;2024-03-08T08:10:49;79034.84;;;11.39;53.70
63665;BME280;49820;33.966;73.390;2024-03-08T08:13:19;79039.53;;;11.08;53.42
63665;BME280;49820;33.966;73.390;2024-03-08T08:15:49;79031.56;;;11.37;53.14
63665;BME280;49820;33.966;73.390;2024-03-08T08:18:19;79024.03;;;10.82;52.85
63665;BME280;49820;33.966;73.390;2024-03-08T08:20:54;79026.28;;;11.93;53.49
63665;BME280;49820;33.966;73.390;2024-03-08T08:23:23;79029.88;;;10.90;52.97
63665;BME280;49820;33.966;73.390;2024-03-08T08:25:53;79019.28;;;10.51;54.06
63665;BME280;49820;33.966;73.390;2024-03-08T08:28:25;79032.81;;;10.43;54.05
63665;BME280;49820;33.966;73.390;2024-03-08T08:30:54;79025.41;;;10.09;54.76
63665;BME280;49820;33.966;73.390;2024-03-08T08:33:25;79021.34;;;10.12;55.99
63665;BME280;49820;33.966;73.390;2024-03-08T08:35:55;79009.72;;;12.67;55.34
63665;BME280;49820;33.966;73.390;2024-03-08T08:38:25;79020.81;;;13.52;49.98
63665;BME280;49820;33.966;73.390;2024-03-08T08:40:55;79012.19;;;11.65;51.06
63665;BME280;49820;33.966;73.390;2024-03-08T08:43:25;79007.78;;;12.11;52.71
63665;BME280;49820;33.966;73.390;2024-03-08T08:45:56;79018.16;;;14.18;49.31
63665;BME280;49820;33.966;73.390;2024-03-08T08:48:26;79014.38;;;13.43;47.76
63665;BME280;49820;33.966;73.390;2024-03-08T08:50:57;78999.63;;;14.10;48.19
63665;BME280;49820;33.966;73.390;2024-03-08T08:53:27;78994.69;;;11.99;48.80
63665;BME280;49820;33.966;73.390;2024-03-08T08:55:57;79004.03;;;11.42;49.44
63665;BME280;49820;33.966;73.390;2024-03-08T08:58:27;78994.16;;;11.04;49.68
63665;BME280;49820;33.966;73.390;2024-03-08T09:00:57;79000.41;;;10.26;51.02
63665;BME280;49820;33.966;73.390;2024-03-08T09:03:28;78990.84;;;10.01;49.98
63665;BME280;49820;33.966;73.390;2024-03-08T09:05:59;78995.97;;;10.48;53.43
63665;BME280;49820;33.966;73.390;2024-03-08T09:08:29;78997.78;;;10.57;50.46
63665;BME280;49820;33.966;73.390;2024-03-08T09:11:01;78982.84;;;10.01;51.85
63665;BME280;49820;33.966;73.390;2024-03-08T09:13:32;79000.38;;;10.28;51.71
63665;BME280;49820;33.966;73.390;2024-03-08T09:16:03;78992.59;;;10.14;51.61
63665;BME280;49820;33.966;73.390;2024-03-08T09:18:34;78993.59;;;10.33;52.08
63665;BME280;49820;33.966;73.390;2024-03-08T09:21:05;78996.66;;;10.11;51.19
63665;BME280;49820;33.966;73.390;2024-03-08T09:23:38;78998.50;;;9.82;53.28
63665;BME280;49820;33.966;73.390;2024-03-08T09:26:10;79003.50;;;10.02;52.10
63665;BME280;49820;33.966;73.390;2024-03-08T09:28:42;78982.81;;;10.03;46.94
63665;BME280;49820;33.966;73.390;2024-03-08T09:31:12;78990.81;;;10.03;46.90
63665;BME280;49820;33.966;73.390;2024-03-08T09:33:42;79008.16;;;10.04;47.77
63665;BME280;49820;33.966;73.390;2024-03-08T09:36:13;78994.53;;;9.81;50.52
63665;BME280;49820;33.966;73.390;2024-03-08T09:38:46;78980.50;;;11.18;52.29
63665;BME280;49820;33.966;73.390;2024-03-08T09:41:16;78994.78;;;13.46;48.79
63665;BME280;49820;33.966;73.390;2024-03-08T09:43:47;78986.41;;;12.36;47.20
63665;BME280;49820;33.966;73.390;2024-03-08T09:46:18;78980.44;;;11.51;47.96
63665;BME280;49820;33.966;73.390;2024-03-08T09:48:48;78977.88;;;11.45;49.56
63665;BME280;49820;33.966;73.390;2024-03-08T09:51:21;78993.69;;;13.62;47.79
63665;BME280;49820;33.966;73.390;2024-03-08T09:53:54;78997.06;;;13.83;48.32
63665;BME280;49820;33.966;73.390;2024-03-08T09:56:24;78995.84;;;12.85;50.82
63665;BME280;49820;33.966;73.390;2024-03-08T09:58:54;78989.84;;;11.77;53.00
63665;BME280;49820;33.966;73.390;2024-03-08T10:01:34;78987.09;;;10.90;56.46
63665;BME280;49820;33.966;73.390;2024-03-08T10:04:04;78991.38;;;10.44;56.41
63665;BME280;49820;33.966;73.390;2024-03-08T10:06:34;78997.97;;;10.49;58.84
63665;BME280;49820;33.966;73.390;2024-03-08T10:09:04;78997.91;;;10.86;57.69
63665;BME280;49820;33.966;73.390;2024-03-08T10:11:36;78976.53;;;10.16;62.22
63665;BME280;49820;33.966;73.390;2024-03-08T10:14:08;78987.13;;;10.22;57.53
63665;BME280;49820;33.966;73.390;2024-03-08T10:16:39;78994.03;;;10.09;58.04
63665;BME280;49820;33.966;73.390;2024-03-08T10:19:09;78983.94;;;9.77;60.25
63665;BME280;49820;33.966;73.390;2024-03-08T10:21:49;78999.78;;;9.46;59.92
63665;BME280;49820;33.966;73.390;2024-03-08T10:24:19;78992.75;;;9.28;62.84
63665;BME280;49820;33.966;73.390;2024-03-08T10:27:01;78981.69;;;9.09;64.00
63665;BME280;49820;33.966;73.390;2024-03-08T10:29:33;78991.41;;;8.84;64.83
63665;BME280;49820;33.966;73.390;2024-03-08T10:32:04;78989.06;;;8.62;65.56
63665;BME280;49820;33.966;73.390;2024-03-08T10:34:36;78993.66;;;8.67;66.43
63665;BME280;49820;33.966;73.390;2024-03-08T10:37:08;78972.91;;;8.74;65.66
63665;BME280;49820;33.966;73.390;2024-03-08T10:39:48;78975.59;;;10.32;63.57
63665;BME280;49820;33.966;73.390;2024-03-08T10:42:57;78996.00;;;11.71;57.83
63665;BME280;49820;33.966;73.390;2024-03-08T10:45:37;78991.13;;;10.56;59.46
63665;BME280;49820;33.966;73.390;2024-03-08T10:48:28;78991.75;;;10.59;57.96
63665;BME280;49820;33.966;73.390;2024-03-08T10:51:07;78983.09;;;9.86;59.73
63665;BME280;49820;33.966;73.390;2024-03-08T10:53:42;78977.00;;;9.53;61.14
63665;BME280;49820;33.966;73.390;2024-03-08T10:56:13;78987.38;;;9.30;61.98
63665;BME280;49820;33.966;73.390;2024-03-08T10:58:47;78981.09;;;9.07;63.09
63665;BME280;49820;33.966;73.390;2024-03-08T11:01:21;78975.53;;;8.76;65.16
63665;BME280;49820;33.966;73.390;2024-03-08T11:03:54;78971.00;;;9.52;63.50
63665;BME280;49820;33.966;73.390;2024-03-08T11:09:27;78986.56;;;8.97;63.60
63665;BME280;49820;33.966;73.390;2024-03-08T11:12:20;78974.97;;;8.69;64.92
63665;BME280;49820;33.966;73.390;2024-03-08T11:14:55;78964.25;;;8.26;65.17
63665;BME280;49820;33.966;73.390;2024-03-08T11:20:01;78956.00;;;8.47;64.85
63665;BME280;49820;33.966;73.390;2024-03-08T11:22:34;78964.72;;;9.70;62.42
63665;BME280;49820;33.966;73.390;2024-03-08T11:25:09;78949.22;;;9.79;62.20
63665;BME280;49820;33.966;73.390;2024-03-08T11:27:53;78966.66;;;9.33;62.23
63665;BME280;49820;33.966;73.390;2024-03-08T11:30:23;78937.56;;;8.77;63.03
63665;BME280;49820;33.966;73.390;2024-03-08T11:33:00;78968.53;;;8.54;64.92
63665;BME280;49820;33.966;73.390;2024-03-08T11:35:33;78976.03;;;8.41;65.07
63665;BME280;49820;33.966;73.390;2024-03-08T11:38:03;78962.88;;;8.27;65.15
63665;BME280;49820;33.966;73.390;2024-03-08T11:40:33;78954.38;;;8.19;65.82
63665;BME280;49820;33.966;73.390;2024-03-08T11:43:04;78955.84;;;8.59;64.76
63665;BME280;49820;33.966;73.390;2024-03-08T11:45:36;78969.56;;;8.75;64.33
63665;BME280;49820;33.966;73.390;2024-03-08T11:48:07;78959.84;;;8.58;64.61
63665;BME280;49820;33.966;73.390;2024-03-08T11:50:38;78964.38;;;8.65;65.78
63665;BME280;49820;33.966;73.390;2024-03-08T11:53:08;78965.06;;;8.66;65.97
63665;BME280;49820;33.966;73.390;2024-03-08T11:55:39;78957.34;;;8.46;67.45
63665;BME280;49820;33.966;73.390;2024-03-08T11:58:09;78973.44;;;8.35;66.70
63665;BME280;49820;33.966;73.390;2024-03-08T12:00:41;78963.84;;;8.03;68.18
63665;BME280;49820;33.966;73.390;2024-03-08T12:03:11;78953.34;;;7.93;68.23
63665;BME280;49820;33.966;73.390;2024-03-08T12:05:41;78975.59;;;8.21;68.23
63665;BME280;49820;33.966;73.390;2024-03-08T12:08:12;78955.91;;;8.01;68.75
63665;BME280;49820;33.966;73.390;2024-03-08T12:10:43;78964.13;;;7.81;69.51
63665;BME280;49820;33.966;73.390;2024-03-08T12:13:14;78964.78;;;7.82;69.75
63665;BME280;49820;33.966;73.390;2024-03-08T12:15:46;78961.53;;;7.75;70.92
63665;BME280;49820;33.966;73.390;2024-03-08T12:18:17;78963.16;;;7.48;72.21
63665;BME280;49820;33.966;73.390;2024-03-08T12:20:46;78979.78;;;7.48;73.24
63665;BME280;49820;33.966;73.390;2024-03-08T12:23:19;78981.81;;;7.46;73.96
63665;BME280;49820;33.966;73.390;2024-03-08T12:25:48;78975.28;;;7.35;73.73
63665;BME280;49820;33.966;73.390;2024-03-08T12:28:19;78969.38;;;7.24;74.62
63665;BME280;49820;33.966;73.390;2024-03-08T12:30:52;78982.06;;;7.19;75.93
63665;BME280;49820;33.966;73.390;2024-03-08T12:33:28;78955.16;;;6.84;77.61
63665;BME280;49820;33.966;73.390;2024-03-08T12:35:58;78980.31;;;6.92;78.22
63665;BME280;49820;33.966;73.390;2024-03-08T12:38:28;78988.41;;;6.75;79.97
63665;BME280;49820;33.966;73.390;2024-03-08T12:41:01;78980.56;;;6.63;81.57
63665;BME280;49820;33.966;73.390;2024-03-08T12:43:31;78988.53;;;6.59;82.33
63665;BME280;49820;33.966;73.390;2024-03-08T12:46:03;78970.13;;;6.37;83.31
63665;BME280;49820;33.966;73.390;2024-03-08T12:48:35;78993.25;;;6.50;84.90
63665;BME280;49820;33.966;73.390;2024-03-08T12:51:10;78990.69;;;6.40;85.92
63665;BME280;49820;33.966;73.390;2024-03-08T12:53:40;78999.38;;;6.31;87.13
63665;BME280;49820;33.966;73.390;2024-03-08T12:56:36;78978.97;;;6.07;89.19
63665;BME280;49820;33.966;73.390;2024-03-08T12:59:09;78992.19;;;6.11;91.14
63665;BME280;49820;33.966;73.390;2024-03-08T13:01:42;79009.47;;;6.08;92.04
63665;BME280;49820;33.966;73.390;2024-03-08T13:04:13;78988.34;;;5.80;93.15
63665;BME280;49820;33.966;73.390;2024-03-08T13:06:44;79011.56;;;5.77;95.31
63665;BME280;49820;33.966;73.390;2024-03-08T13:09:20;79007.63;;;5.74;95.01
63665;BME280;49820;33.966;73.390;2024-03-08T13:11:50;79010.97;;;5.64;95.01
63665;BME280;49820;33.966;73.390;2024-03-08T13:14:21;79016.31;;;5.54;96.13
63665;BME280;49820;33.966;73.390;2024-03-08T13:16:51;79000.47;;;5.40;97.44
63665;BME280;49820;33.966;73.390;2024-03-08T13:19:21;79011.06;;;5.38;98.87
63665;BME280;49820;33.966;73.390;2024-03-08T13:21:51;79008.47;;;5.20;100.00
63665;BME280;49820;33.966;73.390;2024-03-08T13:24:21;79007.16;;;5.15;100.00
63665;BME280;49820;33.966;73.390;2024-03-08T13:26:51;79013.13;;;5.11;100.00
63665;BME280;49820;33.966;73.390;2024-03-08T13:29:21;79012.50;;;5.03;100.00
63665;BME280;49820;33.966;73.390;2024-03-08T13:31:52;79022.44;;;4.94;100.00
63665;BME280;49820;33.966;73.390;2024-03-08T13:34:25;79017.16;;;4.82;100.00
63665;BME280;49820;33.966;73.390;2024-03-08T13:36:58;79017.19;;;4.78;100.00
63665;BME280;49820;33.966;73.390;2024-03-08T13:39:30;79027.75;;;4.86;100.00
63665;BME280;49820;33.966;73.390;2024-03-08T13:42:06;79026.41;;;4.79;100.00
63665;BME280;49820;33.966;73.390;2024-03-08T13:44:48;79030.41;;;4.76;100.00
63665;BME280;49820;33.966;73.390;2024-03-08T13:47:19;79018.50;;;4.67;100.00
63665;BME280;49820;33.966;73.390;2024-03-08T13:49:49;79011.91;;;4.59;100.00
63665;BME280;49820;33.966;73.390;2024-03-08T13:52:20;79031.72;;;4.71;100.00
63665;BME280;49820;33.966;73.390;2024-03-08T13:54:50;79020.50;;;4.58;100.00
63665;BME280;49820;33.966;73.390;2024-03-08T13:57:21;79028.44;;;4.58;100.00
